Time;durP1;ratioP1;P1;durP2;ratioP2;P2;SDS_P1;SDS_P2;PMS_P1;PMS_P2;Temp;Humidity;BMP_temperature;BMP_pressure;BME280_temperature;BME280_humidity;BME280_pressure;Samples;Min_cycle;Max_cycle;Signal;HPM_P1;HPM_P2
2024/01/21 00:01:03;;;;;;;59.72;52.40;;;;;;;;;;5065901;28;20409;-77
2024/01/21 00:03:28;;;;;;;129.75;90.43;;;;;;;;;;5064114;28;20036;-77
2024/01/21 00:05:54;;;;;;;151.65;105.72;;;;;;;;;;5063346;28;20030;-76
2024/01/21 00:08:19;;;;;;;103.95;80.25;;;;;;;;;;5063686;28;20114;-77
2024/01/21 00:10:44;;;;;;;93.10;71.50;;;;;;;;;;5076180;28;20042;-77
2024/01/21 00:13:10;;;;;;;80.93;63.72;;;;;;;;;;5078245;28;20427;-75
2024/01/21 00:15:35;;;;;;;89.93;65.82;;;;;;;;;;5062401;28;20082;-75
2024/01/21 00:18:01;;;;;;;113.95;82.85;;;;;;;;;;5042324;28;20035;-76
2024/01/21 00:20:30;;;;;;;60.13;49.47;;;;;;;;;;5062881;28;20077;-75
2024/01/21 00:22:56;;;;;;;47.55;42.42;;;;;;;;;;5065420;28;20806;-74
2024/01/21 00:25:22;;;;;;;50.47;45.15;;;;;;;;;;5076073;28;20877;-76
2024/01/21 00:27:47;;;;;;;50.53;45.03;;;;;;;;;;5069445;28;20073;-76
2024/01/21 00:30:13;;;;;;;61.60;55.05;;;;;;;;;;5061812;28;20028;-77
2024/01/21 00:32:38;;;;;;;109.53;85.00;;;;;;;;;;5062384;28;20043;-76
2024/01/21 00:35:04;;;;;;;84.78;68.38;;;;;;;;;;5077078;28;20028;-77
2024/01/21 00:37:29;;;;;;;54.10;46.10;;;;;;;;;;5056130;28;20154;-78
2024/01/21 00:39:55;;;;;;;49.30;42.50;;;;;;;;;;5075927;28;20066;-75
2024/01/21 00:42:20;;;;;;;55.42;46.80;;;;;;;;;;5067726;28;20020;-76
2024/01/21 00:44:45;;;;;;;57.88;51.45;;;;;;;;;;5063843;28;20043;-79
2024/01/21 00:47:11;;;;;;;50.20;44.90;;;;;;;;;;5046925;28;20030;-78
2024/01/21 00:49:39;;;;;;;50.60;45.33;;;;;;;;;;5063981;28;20780;-81
2024/01/21 00:52:04;;;;;;;63.10;54.90;;;;;;;;;;5046694;28;20028;-80
2024/01/21 00:54:30;;;;;;;49.25;43.95;;;;;;;;;;5063343;28;20036;-77
2024/01/21 00:56:55;;;;;;;50.42;44.97;;;;;;;;;;5046807;28;21040;-78
2024/01/21 00:59:20;;;;;;;57.20;47.42;;;;;;;;;;5064112;28;20035;-80
2024/01/21 01:01:46;;;;;;;52.22;42.80;;;;;;;;;;5065730;28;20081;-79
2024/01/21 01:04:11;;;;;;;46.13;37.85;;;;;;;;;;5046754;28;20036;-78
2024/01/21 01:06:36;;;;;;;46.28;37.90;;;;;;;;;;5065803;28;20030;-78
2024/01/21 01:09:04;;;;;;;39.55;35.25;;;;;;;;;;5055785;28;20109;-81
2024/01/21 01:11:30;;;;;;;50.83;45.50;;;;;;;;;;5050316;28;21088;-78
2024/01/21 01:13:56;;;;;;;36.88;33.10;;;;;;;;;;5059119;28;20047;-78
2024/01/21 01:16:22;;;;;;;25.20;22.60;;;;;;;;;;5076104;28;20038;-78
2024/01/21 01:18:47;;;;;;;20.90;18.63;;;;;;;;;;5067556;28;20028;-79
2024/01/21 01:21:13;;;;;;;52.55;44.67;;;;;;;;;;5077290;28;20026;-80
2024/01/21 01:23:38;;;;;;;132.35;101.32;;;;;;;;;;5072444;28;20085;-79
2024/01/21 01:26:04;;;;;;;138.65;108.40;;;;;;;;;;5068712;28;20367;-78
2024/01/21 01:28:31;;;;;;;141.52;107.32;;;;;;;;;;5066734;28;20028;-79
2024/01/21 01:30:56;;;;;;;140.73;111.35;;;;;;;;;;5076631;28;20479;-78
2024/01/21 01:33:21;;;;;;;177.77;137.45;;;;;;;;;;5068238;28;20082;-78
2024/01/21 01:35:47;;;;;;;167.25;134.80;;;;;;;;;;5059437;28;20347;-79
2024/01/21 01:38:13;;;;;;;144.27;113.70;;;;;;;;;;5078267;28;20340;-79
2024/01/21 01:40:38;;;;;;;162.55;132.18;;;;;;;;;;5078092;28;20032;-80
2024/01/21 01:43:04;;;;;;;141.15;118.97;;;;;;;;;;5074697;28;20444;-79
2024/01/21 01:45:30;;;;;;;202.32;152.32;;;;;;;;;;5067862;28;21018;-79
2024/01/21 01:47:56;;;;;;;165.35;118.95;;;;;;;;;;5074645;28;20075;-79
2024/01/21 01:50:21;;;;;;;96.90;81.05;;;;;;;;;;5062185;28;20016;-78
2024/01/21 01:52:47;;;;;;;105.38;89.20;;;;;;;;;;5076277;28;20020;-79
2024/01/21 01:55:12;;;;;;;107.72;95.85;;;;;;;;;;5073499;28;20028;-80
2024/01/21 01:57:37;;;;;;;117.88;99.57;;;;;;;;;;5082220;28;20335;-79
2024/01/21 02:00:06;;;;;;;136.30;111.25;;;;;;;;;;5063025;28;20078;-80
2024/01/21 02:02:32;;;;;;;108.10;88.07;;;;;;;;;;5061040;28;20107;-78
2024/01/21 02:04:59;;;;;;;173.10;133.40;;;;;;;;;;5069106;28;20149;-79
2024/01/21 02:07:24;;;;;;;114.68;91.88;;;;;;;;;;5073244;28;20100;-81
2024/01/21 02:09:49;;;;;;;77.22;63.58;;;;;;;;;;5080762;28;20491;-81
2024/01/21 02:12:17;;;;;;;43.08;38.40;;;;;;;;;;5079372;28;21436;-81
2024/01/21 02:14:43;;;;;;;45.00;38.80;;;;;;;;;;5080013;28;20137;-82
2024/01/21 02:17:08;;;;;;;69.45;53.67;;;;;;;;;;5055359;28;20695;-81
2024/01/21 02:19:33;;;;;;;49.20;39.60;;;;;;;;;;5080592;28;20070;-81
2024/01/21 02:21:59;;;;;;;50.38;44.90;;;;;;;;;;5069432;28;20035;-82
2024/01/21 02:24:28;;;;;;;55.72;48.50;;;;;;;;;;5080200;28;20028;-81
2024/01/21 02:26:53;;;;;;;65.63;56.50;;;;;;;;;;5059574;28;20117;-80
2024/01/21 02:29:19;;;;;;;82.20;68.53;;;;;;;;;;5060291;28;20715;-78
2024/01/21 02:31:44;;;;;;;91.28;75.78;;;;;;;;;;5079718;28;20028;-80
2024/01/21 02:34:09;;;;;;;222.30;187.30;;;;;;;;;;5070881;28;20032;-79
2024/01/21 02:36:35;;;;;;;150.57;115.72;;;;;;;;;;5054263;28;20020;-78
2024/01/21 02:39:00;;;;;;;136.68;107.40;;;;;;;;;;5071999;28;20122;-80
2024/01/21 02:41:25;;;;;;;78.43;62.47;;;;;;;;;;5079657;28;20103;-81
2024/01/21 02:43:51;;;;;;;52.75;44.53;;;;;;;;;;5079594;28;20039;-81
2024/01/21 02:46:17;;;;;;;59.72;51.15;;;;;;;;;;5079428;28;20419;-81
2024/01/21 02:48:42;;;;;;;62.13;53.63;;;;;;;;;;5078479;28;20016;-80
2024/01/21 02:51:11;;;;;;;69.72;59.25;;;;;;;;;;5071629;28;20444;-80
2024/01/21 02:53:37;;;;;;;33.13;29.58;;;;;;;;;;5060437;28;20109;-80
2024/01/21 02:56:03;;;;;;;52.85;42.45;;;;;;;;;;5052326;28;20098;-83
2024/01/21 02:58:28;;;;;;;47.08;40.70;;;;;;;;;;5077835;28;20511;-81
2024/01/21 03:00:53;;;;;;;49.42;41.28;;;;;;;;;;5080450;28;20107;-81
2024/01/21 03:03:19;;;;;;;60.22;50.13;;;;;;;;;;5060237;28;20623;-80
2024/01/21 03:05:44;;;;;;;70.90;57.25;;;;;;;;;;5079193;28;20447;-80
2024/01/21 03:08:09;;;;;;;72.75;57.08;;;;;;;;;;5077674;28;20673;-81
2024/01/21 03:10:35;;;;;;;51.88;42.03;;;;;;;;;;5079522;28;20045;-80
2024/01/21 03:13:01;;;;;;;31.10;26.92;;;;;;;;;;5077581;28;20422;-81
2024/01/21 03:15:26;;;;;;;25.65;21.52;;;;;;;;;;5060700;28;20331;-81
2024/01/21 03:17:51;;;;;;;30.23;26.55;;;;;;;;;;5087469;28;20028;-82
2024/01/21 03:20:17;;;;;;;38.58;31.70;;;;;;;;;;5093023;28;20036;-82
2024/01/21 03:22:42;;;;;;;35.97;29.77;;;;;;;;;;5065586;28;20039;-79
2024/01/21 03:25:07;;;;;;;55.28;44.33;;;;;;;;;;5071796;28;20036;-82
2024/01/21 03:27:33;;;;;;;63.50;52.50;;;;;;;;;;5065300;28;20126;-83
2024/01/21 03:29:58;;;;;;;63.08;53.10;;;;;;;;;;5070549;28;20024;-80
2024/01/21 03:32:23;;;;;;;59.30;47.53;;;;;;;;;;5066117;28;20071;-81
2024/01/21 03:34:51;;;;;;;59.72;50.38;;;;;;;;;;5078037;28;20036;-79
2024/01/21 03:37:18;;;;;;;71.07;59.47;;;;;;;;;;5080627;28;20020;-80
2024/01/21 03:39:43;;;;;;;102.47;91.25;;;;;;;;;;5077975;28;20420;-80
2024/01/21 03:42:08;;;;;;;158.07;135.55;;;;;;;;;;5060593;28;20036;-79
2024/01/21 03:44:34;;;;;;;185.27;157.32;;;;;;;;;;5079879;28;20028;-79
2024/01/21 03:47:00;;;;;;;156.95;132.05;;;;;;;;;;5080646;28;20427;-80
2024/01/21 03:49:27;;;;;;;113.93;91.63;;;;;;;;;;5072464;28;20134;-79
2024/01/21 03:51:52;;;;;;;94.60;77.15;;;;;;;;;;5073535;28;20047;-80
2024/01/21 03:54:17;;;;;;;89.97;70.80;;;;;;;;;;5077665;28;20032;-79
2024/01/21 03:56:43;;;;;;;68.88;55.88;;;;;;;;;;5076810;28;20068;-80
2024/01/21 03:59:09;;;;;;;48.90;41.50;;;;;;;;;;5056334;28;20351;-79
2024/01/21 04:01:34;;;;;;;51.97;43.53;;;;;;;;;;5068947;28;20035;-80
2024/01/21 04:04:00;;;;;;;88.50;66.88;;;;;;;;;;5078228;28;20446;-82
2024/01/21 04:06:25;;;;;;;210.52;161.05;;;;;;;;;;5058781;28;20483;-82
2024/01/21 04:08:50;;;;;;;135.00;110.00;;;;;;;;;;5078445;28;20123;-81
2024/01/21 04:11:16;;;;;;;94.03;73.82;;;;;;;;;;5075245;28;20032;-80
2024/01/21 04:13:41;;;;;;;112.00;87.75;;;;;;;;;;5077841;28;20366;-80
2024/01/21 04:16:06;;;;;;;106.25;84.22;;;;;;;;;;5078343;28;20024;-82
2024/01/21 04:18:32;;;;;;;96.70;77.30;;;;;;;;;;5076482;28;20032;-79
2024/01/21 04:21:00;;;;;;;97.65;79.38;;;;;;;;;;5073260;28;20106;-79
2024/01/21 04:23:26;;;;;;;88.88;71.55;;;;;;;;;;5072537;28;20036;-81
2024/01/21 04:25:51;;;;;;;106.47;87.65;;;;;;;;;;5078593;28;20035;-82
2024/01/21 04:28:17;;;;;;;89.50;71.78;;;;;;;;;;5078132;28;20024;-78
2024/01/21 04:30:42;;;;;;;99.97;80.90;;;;;;;;;;5074855;28;20085;-79
2024/01/21 04:33:08;;;;;;;126.22;99.32;;;;;;;;;;5076838;28;20351;-79
2024/01/21 04:35:33;;;;;;;117.03;90.15;;;;;;;;;;5078014;28;20019;-81
2024/01/21 04:37:58;;;;;;;107.88;83.68;;;;;;;;;;5058894;28;20124;-81
2024/01/21 04:40:24;;;;;;;97.22;74.63;;;;;;;;;;5078264;28;20095;-81
2024/01/21 04:42:49;;;;;;;45.20;37.65;;;;;;;;;;5077985;28;20031;-81
2024/01/21 04:45:16;;;;;;;57.88;46.55;;;;;;;;;;5076757;28;20046;-80
2024/01/21 04:47:41;;;;;;;70.93;57.90;;;;;;;;;;5068802;28;20163;-80
2024/01/21 04:50:07;;;;;;;46.55;39.92;;;;;;;;;;5076762;28;20119;-79
2024/01/21 04:52:32;;;;;;;25.60;21.45;;;;;;;;;;5078482;28;20315;-82
2024/01/21 04:54:58;;;;;;;27.35;23.63;;;;;;;;;;5063769;28;20447;-82
2024/01/21 04:57:23;;;;;;;20.38;18.27;;;;;;;;;;5062419;28;20034;-80
2024/01/21 04:59:48;;;;;;;19.45;16.25;;;;;;;;;;5073688;28;20129;-79
2024/01/21 05:02:14;;;;;;;17.20;15.40;;;;;;;;;;5078398;28;20029;-82
2024/01/21 05:04:39;;;;;;;20.23;18.17;;;;;;;;;;5075550;28;20113;-80
2024/01/21 05:07:04;;;;;;;25.27;22.58;;;;;;;;;;5075190;28;20444;-81
2024/01/21 05:09:30;;;;;;;20.30;18.17;;;;;;;;;;5072746;28;20459;-80
2024/01/21 05:11:55;;;;;;;20.48;18.27;;;;;;;;;;5044162;28;20126;-79
2024/01/21 05:14:20;;;;;;;35.08;31.45;;;;;;;;;;5040776;28;20036;-79
2024/01/21 05:16:46;;;;;;;49.00;38.80;;;;;;;;;;5041511;28;20046;-79
2024/01/21 05:19:12;;;;;;;66.95;56.92;;;;;;;;;;5059728;28;20694;-80
2024/01/21 05:21:38;;;;;;;41.47;36.97;;;;;;;;;;5043037;28;20354;-78
2024/01/21 05:24:03;;;;;;;40.22;35.92;;;;;;;;;;5047159;28;20035;-79
2024/01/21 05:26:29;;;;;;;43.22;38.40;;;;;;;;;;5064025;28;20066;-79
2024/01/21 05:28:55;;;;;;;38.05;33.85;;;;;;;;;;5064002;28;20016;-80
2024/01/21 05:31:21;;;;;;;33.00;29.60;;;;;;;;;;5062709;28;20031;-80
2024/01/21 05:33:47;;;;;;;21.77;19.33;;;;;;;;;;5066948;28;20036;-81
2024/01/21 05:36:12;;;;;;;18.50;16.52;;;;;;;;;;5068761;28;20024;-80
2024/01/21 05:38:37;;;;;;;24.35;21.00;;;;;;;;;;5044586;28;20315;-80
2024/01/21 05:41:03;;;;;;;21.92;19.63;;;;;;;;;;5072877;28;20096;-81
2024/01/21 05:43:28;;;;;;;21.48;18.75;;;;;;;;;;5072642;28;20019;-80
2024/01/21 05:45:54;;;;;;;20.35;18.25;;;;;;;;;;5075687;28;20028;-79
2024/01/21 05:48:19;;;;;;;15.85;14.32;;;;;;;;;;5074615;28;20020;-78
2024/01/21 05:50:44;;;;;;;14.40;12.90;;;;;;;;;;5066723;28;20036;-80
2024/01/21 05:53:10;;;;;;;18.77;16.50;;;;;;;;;;5072208;28;20060;-79
2024/01/21 05:55:35;;;;;;;26.23;23.42;;;;;;;;;;5069920;28;20028;-77
2024/01/21 05:58:00;;;;;;;171.43;130.32;;;;;;;;;;5080193;28;20027;-80
2024/01/21 06:00:26;;;;;;;47.40;37.65;;;;;;;;;;5081112;28;20032;-82
2024/01/21 06:02:52;;;;;;;98.93;76.22;;;;;;;;;;5077582;28;20024;-83
2024/01/21 06:05:17;;;;;;;66.85;53.97;;;;;;;;;;5063240;28;20345;-81
2024/01/21 06:07:44;;;;;;;73.78;61.78;;;;;;;;;;5062277;28;20016;-81
2024/01/21 06:10:10;;;;;;;35.22;30.13;;;;;;;;;;5063952;28;20043;-80
2024/01/21 06:12:35;;;;;;;52.67;46.63;;;;;;;;;;5051951;28;20037;-81
2024/01/21 06:15:01;;;;;;;41.08;36.60;;;;;;;;;;5069788;28;20055;-80
2024/01/21 06:17:26;;;;;;;71.18;63.78;;;;;;;;;;5076472;28;20081;-80
2024/01/21 06:19:52;;;;;;;29.30;26.40;;;;;;;;;;5076520;28;20039;-81
2024/01/21 06:22:17;;;;;;;23.67;21.27;;;;;;;;;;5061720;28;20027;-80
2024/01/21 06:24:42;;;;;;;19.23;17.23;;;;;;;;;;5072845;28;20028;-81
2024/01/21 06:27:08;;;;;;;14.75;13.25;;;;;;;;;;5066968;28;20965;-82
2024/01/21 06:29:33;;;;;;;10.77;9.68;;;;;;;;;;5072895;28;20028;-83
2024/01/21 06:31:58;;;;;;;10.75;9.65;;;;;;;;;;5076970;28;20753;-78
2024/01/21 06:34:24;;;;;;;13.20;11.88;;;;;;;;;;5075343;28;20035;-81
2024/01/21 06:36:49;;;;;;;13.95;11.70;;;;;;;;;;5069666;28;20040;-80
2024/01/21 06:39:14;;;;;;;20.83;18.63;;;;;;;;;;5072707;28;20510;-82
2024/01/21 06:41:40;;;;;;;120.30;107.80;;;;;;;;;;5041588;28;20510;-83
2024/01/21 06:44:05;;;;;;;31.38;28.05;;;;;;;;;;5063033;28;20032;-79
2024/01/21 06:46:31;;;;;;;16.80;15.00;;;;;;;;;;5063676;28;20078;-83
2024/01/21 06:48:56;;;;;;;45.03;39.72;;;;;;;;;;5045609;28;20086;-78
2024/01/21 06:51:31;;;;;;;47.58;41.35;;;;;;;;;;5077204;28;20085;-78
2024/01/21 06:53:58;;;;;;;89.93;80.10;;;;;;;;;;5078189;28;20032;-78
2024/01/21 06:56:24;;;;;;;48.75;43.53;;;;;;;;;;5076900;28;20455;-77
2024/01/21 06:58:49;;;;;;;27.00;24.15;;;;;;;;;;5060902;28;20233;-79
2024/01/21 07:01:14;;;;;;;25.08;22.58;;;;;;;;;;5079676;28;20035;-79
2024/01/21 07:03:40;;;;;;;26.33;23.73;;;;;;;;;;5076471;28;20034;-79
2024/01/21 07:06:08;;;;;;;38.75;34.80;;;;;;;;;;5074362;28;20020;-78
2024/01/21 07:08:34;;;;;;;64.28;57.42;;;;;;;;;;5076192;28;20020;-79
2024/01/21 07:10:59;;;;;;;69.30;62.00;;;;;;;;;;5074070;28;20137;-79
2024/01/21 07:13:25;;;;;;;108.25;96.95;;;;;;;;;;5073356;28;20359;-79
2024/01/21 07:15:51;;;;;;;114.50;102.40;;;;;;;;;;5058396;28;20106;-82
2024/01/21 07:18:16;;;;;;;176.43;150.43;;;;;;;;;;5076361;28;20034;-80
2024/01/21 07:20:42;;;;;;;139.50;121.65;;;;;;;;;;5077477;28;20439;-80
2024/01/21 07:23:07;;;;;;;125.72;104.95;;;;;;;;;;5079284;28;20063;-80
2024/01/21 07:25:33;;;;;;;113.30;98.03;;;;;;;;;;5077984;28;20050;-84
2024/01/21 07:27:58;;;;;;;77.18;65.53;;;;;;;;;;5079711;28;20028;-81
2024/01/21 07:30:23;;;;;;;72.53;60.30;;;;;;;;;;5082304;28;20122;-84
2024/01/21 07:32:49;;;;;;;128.77;108.05;;;;;;;;;;5067452;28;20048;-79
2024/01/21 07:35:14;;;;;;;155.88;127.03;;;;;;;;;;5074990;28;20040;-79
2024/01/21 07:37:39;;;;;;;199.60;154.25;;;;;;;;;;5077393;28;20038;-77
2024/01/21 07:40:06;;;;;;;200.25;151.15;;;;;;;;;;5076097;28;20048;-78
2024/01/21 07:42:32;;;;;;;397.15;262.65;;;;;;;;;;5072027;28;20034;-80
2024/01/21 07:44:58;;;;;;;203.65;164.85;;;;;;;;;;5068446;28;20397;-80
2024/01/21 07:47:23;;;;;;;163.88;135.60;;;;;;;;;;5056387;28;20035;-76
2024/01/21 07:49:49;;;;;;;133.55;110.20;;;;;;;;;;5081825;28;20028;-77
2024/01/21 07:52:16;;;;;;;109.78;96.97;;;;;;;;;;5084702;28;20047;-75
2024/01/21 07:54:42;;;;;;;79.82;71.07;;;;;;;;;;5074929;28;20036;-79
2024/01/21 07:57:07;;;;;;;60.80;54.15;;;;;;;;;;5076212;28;20432;-78
2024/01/21 07:59:32;;;;;;;173.30;118.95;;;;;;;;;;5080129;28;20360;-76
2024/01/21 08:01:58;;;;;;;63.83;55.40;;;;;;;;;;5043993;28;20465;-76
2024/01/21 08:04:23;;;;;;;58.13;51.42;;;;;;;;;;5068358;28;20061;-76
2024/01/21 08:06:49;;;;;;;272.70;161.13;;;;;;;;;;5054180;28;20016;-75
2024/01/21 08:09:15;;;;;;;112.45;89.25;;;;;;;;;;5062830;28;20023;-79
2024/01/21 08:11:41;;;;;;;77.82;67.47;;;;;;;;;;5069204;28;20419;-84
2024/01/21 08:14:07;;;;;;;62.10;53.30;;;;;;;;;;5059071;28;20094;-82
2024/01/21 08:16:32;;;;;;;59.55;50.90;;;;;;;;;;5030074;28;20043;-82
2024/01/21 08:18:57;;;;;;;41.40;37.00;;;;;;;;;;5047675;28;20105;-83
2024/01/21 08:21:23;;;;;;;53.63;48.03;;;;;;;;;;5046850;28;20337;-82
2024/01/21 08:23:48;;;;;;;50.00;44.75;;;;;;;;;;5034508;28;20148;-82
2024/01/21 08:26:15;;;;;;;47.95;42.63;;;;;;;;;;4997624;28;20061;-81
2024/01/21 08:28:41;;;;;;;47.60;41.45;;;;;;;;;;4996028;28;20107;-80
2024/01/21 08:31:06;;;;;;;124.25;102.35;;;;;;;;;;4997313;28;20053;-80
2024/01/21 08:33:33;;;;;;;52.75;45.28;;;;;;;;;;5035212;28;20135;-81
2024/01/21 08:35:59;;;;;;;48.80;43.55;;;;;;;;;;5041917;28;20036;-80
2024/01/21 08:38:24;;;;;;;49.65;44.22;;;;;;;;;;5037783;28;20624;-80
2024/01/21 08:40:50;;;;;;;50.55;45.20;;;;;;;;;;5034368;28;20977;-79
2024/01/21 08:43:15;;;;;;;61.70;55.20;;;;;;;;;;5035585;28;20048;-82
2024/01/21 08:45:40;;;;;;;56.70;50.67;;;;;;;;;;5037699;28;20043;-81
2024/01/21 08:48:06;;;;;;;75.00;66.93;;;;;;;;;;5037009;28;20028;-81
2024/01/21 08:50:31;;;;;;;70.32;62.92;;;;;;;;;;5037307;28;20123;-80
2024/01/21 08:52:57;;;;;;;47.95;43.15;;;;;;;;;;5035590;28;20463;-81
2024/01/21 08:55:22;;;;;;;47.47;42.90;;;;;;;;;;5037534;28;20135;-79
2024/01/21 08:57:48;;;;;;;42.17;37.92;;;;;;;;;;5069572;28;20058;-79
2024/01/21 09:00:14;;;;;;;78.35;67.18;;;;;;;;;;5079570;28;20036;-80
2024/01/21 09:02:39;;;;;;;180.02;160.48;;;;;;;;;;5077786;28;20035;-80
2024/01/21 09:05:05;;;;;;;89.32;80.43;;;;;;;;;;5082994;28;20031;-79
2024/01/21 09:07:30;;;;;;;41.95;37.65;;;;;;;;;;5078156;28;20074;-79
2024/01/21 09:09:56;;;;;;;45.10;40.47;;;;;;;;;;5082811;28;20113;-76
2024/01/21 09:12:21;;;;;;;84.38;74.22;;;;;;;;;;5083073;28;20035;-87
2024/01/21 09:14:47;;;;;;;82.65;70.82;;;;;;;;;;5086277;28;20059;-80
2024/01/21 09:17:12;;;;;;;61.88;54.17;;;;;;;;;;5085597;28;20039;-78
2024/01/21 09:19:37;;;;;;;52.33;46.72;;;;;;;;;;5084177;28;20060;-79
2024/01/21 09:22:03;;;;;;;48.28;43.40;;;;;;;;;;5091331;28;20023;-74
2024/01/21 09:24:28;;;;;;;55.95;48.53;;;;;;;;;;5085121;28;20035;-78
2024/01/21 09:26:53;;;;;;;45.80;40.88;;;;;;;;;;5097418;28;20066;-76
2024/01/21 09:29:19;;;;;;;50.83;45.75;;;;;;;;;;5084727;28;20027;-82
2024/01/21 09:31:51;;;;;;;51.03;44.95;;;;;;;;;;5085951;28;20097;-77
2024/01/21 09:34:17;;;;;;;36.60;32.85;;;;;;;;;;5059173;28;20032;-77
2024/01/21 09:36:42;;;;;;;33.05;29.65;;;;;;;;;;5061654;28;20024;-75
2024/01/21 09:39:09;;;;;;;45.80;41.10;;;;;;;;;;5065377;28;20024;-78
2024/01/21 09:41:38;;;;;;;36.55;32.83;;;;;;;;;;5063514;28;20435;-79
2024/01/21 09:44:03;;;;;;;32.25;28.95;;;;;;;;;;5076008;28;20028;-77
2024/01/21 09:46:29;;;;;;;52.05;45.03;;;;;;;;;;5075036;28;20489;-77
2024/01/21 09:48:56;;;;;;;66.85;51.88;;;;;;;;;;5044079;28;20032;-78
2024/01/21 09:51:22;;;;;;;62.85;52.38;;;;;;;;;;5075778;28;20070;-79
2024/01/21 09:53:47;;;;;;;45.05;40.35;;;;;;;;;;5071419;28;20033;-79
2024/01/21 09:56:13;;;;;;;38.83;34.60;;;;;;;;;;5071504;28;20105;-77
2024/01/21 09:58:46;;;;;;;45.33;40.47;;;;;;;;;;5075447;28;20016;-75
2024/01/21 10:01:12;;;;;;;43.22;38.42;;;;;;;;;;5077578;28;20063;-78
2024/01/21 10:03:37;;;;;;;105.53;94.15;;;;;;;;;;5075980;28;20070;-78
2024/01/21 10:06:02;;;;;;;49.85;44.45;;;;;;;;;;5075750;28;20448;-78
2024/01/21 10:08:28;;;;;;;49.35;43.75;;;;;;;;;;5077362;28;20028;-78
2024/01/21 10:10:54;;;;;;;54.88;49.15;;;;;;;;;;5052168;28;20032;-75
2024/01/21 10:13:19;;;;;;;64.30;57.45;;;;;;;;;;5064647;28;20091;-76
2024/01/21 10:15:44;;;;;;;36.50;32.63;;;;;;;;;;5064449;28;20040;-80
2024/01/21 10:18:10;;;;;;;52.95;45.08;;;;;;;;;;5078934;28;20025;-79
2024/01/21 10:20:37;;;;;;;51.72;45.35;;;;;;;;;;5058956;28;20106;-79
2024/01/21 10:23:10;;;;;;;43.45;38.28;;;;;;;;;;5059835;28;20054;-76
2024/01/21 10:25:36;;;;;;;63.00;50.45;;;;;;;;;;5069531;28;20451;-75
2024/01/21 10:28:01;;;;;;;37.72;33.88;;;;;;;;;;5078238;28;20020;-78
2024/01/21 10:30:26;;;;;;;36.83;32.80;;;;;;;;;;5074195;28;20049;-77
2024/01/21 10:32:52;;;;;;;40.85;36.42;;;;;;;;;;5066724;28;20051;-78
2024/01/21 10:35:17;;;;;;;86.68;68.28;;;;;;;;;;5071662;28;20194;-78
2024/01/21 10:37:42;;;;;;;58.00;47.25;;;;;;;;;;5057885;28;20028;-74
2024/01/21 10:40:11;;;;;;;56.15;47.42;;;;;;;;;;5062478;28;20779;-77
2024/01/21 10:42:36;;;;;;;75.90;57.83;;;;;;;;;;5065266;28;20389;-75
2024/01/21 10:45:02;;;;;;;60.42;45.97;;;;;;;;;;5067641;28;20024;-75
2024/01/21 10:47:29;;;;;;;81.97;63.85;;;;;;;;;;5063759;28;20136;-76
2024/01/21 10:49:55;;;;;;;41.33;36.88;;;;;;;;;;5061746;28;20020;-77
2024/01/21 10:52:21;;;;;;;54.75;46.22;;;;;;;;;;5040923;28;20076;-73
2024/01/21 10:54:47;;;;;;;55.33;43.33;;;;;;;;;;5046233;28;20383;-76
2024/01/21 10:57:13;;;;;;;34.60;31.10;;;;;;;;;;5061363;28;20032;-76
2024/01/21 10:59:39;;;;;;;22.48;20.30;;;;;;;;;;5078534;28;20443;-75
2024/01/21 11:02:04;;;;;;;34.42;30.75;;;;;;;;;;5063787;28;20172;-74
2024/01/21 11:04:30;;;;;;;34.15;30.80;;;;;;;;;;5063928;28;20463;-73
2024/01/21 11:06:55;;;;;;;48.97;43.80;;;;;;;;;;5059614;28;20347;-73
2024/01/21 11:09:22;;;;;;;79.97;68.97;;;;;;;;;;5063969;28;20055;-77
2024/01/21 11:11:49;;;;;;;45.75;41.10;;;;;;;;;;5066382;28;20413;-74
2024/01/21 11:14:34;;;;;;;33.00;29.55;;;;;;;;;;5065559;28;20078;-74
2024/01/21 11:17:01;;;;;;;82.55;62.40;;;;;;;;;;5073303;28;20412;-75
2024/01/21 11:19:29;;;;;;;29.88;26.88;;;;;;;;;;5064544;28;20598;-75
2024/01/21 11:21:55;;;;;;;41.33;37.08;;;;;;;;;;5069269;28;20025;-75
2024/01/21 11:24:27;;;;;;;26.88;24.25;;;;;;;;;;5065608;28;20470;-75
2024/01/21 11:26:52;;;;;;;27.23;24.63;;;;;;;;;;5057754;28;20428;-75
2024/01/21 11:29:27;;;;;;;24.20;21.80;;;;;;;;;;5059497;28;20032;-75
2024/01/21 11:31:53;;;;;;;35.97;31.42;;;;;;;;;;5057203;28;20037;-78
2024/01/21 11:34:18;;;;;;;30.40;27.33;;;;;;;;;;5060360;28;20040;-75
2024/01/21 11:36:44;;;;;;;26.90;24.25;;;;;;;;;;5043337;28;20093;-75
2024/01/21 11:39:09;;;;;;;49.88;45.35;;;;;;;;;;5058810;28;23165;-75
2024/01/21 11:41:42;;;;;;;34.58;31.30;;;;;;;;;;5059676;28;20055;-72
2024/01/21 11:44:08;;;;;;;35.03;31.63;;;;;;;;;;5039600;28;20020;-75
2024/01/21 11:46:33;;;;;;;28.67;26.08;;;;;;;;;;5056384;28;20016;-74
2024/01/21 11:49:01;;;;;;;32.25;29.05;;;;;;;;;;5067212;28;20036;-73
2024/01/21 11:51:26;;;;;;;30.40;27.38;;;;;;;;;;5074429;28;20093;-73
2024/01/21 11:53:53;;;;;;;26.17;23.75;;;;;;;;;;5077334;28;20032;-73
2024/01/21 11:56:18;;;;;;;24.00;21.60;;;;;;;;;;5076751;28;20031;-76
2024/01/21 11:58:43;;;;;;;29.65;26.88;;;;;;;;;;5079282;28;20036;-74
2024/01/21 12:01:09;;;;;;;25.08;22.80;;;;;;;;;;5057321;28;20067;-75
2024/01/21 12:03:34;;;;;;;23.92;21.65;;;;;;;;;;5070312;28;20346;-77
2024/01/21 12:05:59;;;;;;;30.02;27.15;;;;;;;;;;5073061;28;20028;-77
2024/01/21 12:08:25;;;;;;;26.85;24.42;;;;;;;;;;5077192;28;20035;-74
2024/01/21 12:10:50;;;;;;;29.08;26.27;;;;;;;;;;5065346;28;20023;-77
2024/01/21 12:13:16;;;;;;;29.80;26.70;;;;;;;;;;5060408;28;20096;-76
2024/01/21 12:15:41;;;;;;;26.77;24.08;;;;;;;;;;5069230;28;20034;-77
2024/01/21 12:18:06;;;;;;;24.83;22.38;;;;;;;;;;5067115;28;20089;-76
2024/01/21 12:20:32;;;;;;;22.77;20.63;;;;;;;;;;5069022;28;20431;-77
2024/01/21 12:22:57;;;;;;;25.13;22.83;;;;;;;;;;5074571;28;20016;-76
2024/01/21 12:25:24;;;;;;;22.80;20.58;;;;;;;;;;5048788;28;20039;-77
2024/01/21 12:27:54;;;;;;;33.63;30.13;;;;;;;;;;5076210;28;20836;-76
2024/01/21 12:30:19;;;;;;;29.17;26.30;;;;;;;;;;5075187;28;20029;-77
2024/01/21 12:32:45;;;;;;;29.05;26.08;;;;;;;;;;5076900;28;20109;-75
2024/01/21 12:35:10;;;;;;;25.88;23.48;;;;;;;;;;5074250;28;20042;-76
2024/01/21 12:37:36;;;;;;;22.52;20.42;;;;;;;;;;5050891;28;20111;-78
2024/01/21 12:40:01;;;;;;;24.52;22.23;;;;;;;;;;5070223;28;20611;-77
2024/01/21 12:42:27;;;;;;;21.13;19.17;;;;;;;;;;5044032;28;20417;-81
2024/01/21 12:44:52;;;;;;;24.20;22.05;;;;;;;;;;5063926;28;20040;-78
2024/01/21 12:47:18;;;;;;;23.70;21.55;;;;;;;;;;5061986;28;20044;-77
2024/01/21 12:49:44;;;;;;;24.13;21.95;;;;;;;;;;5022493;28;20024;-78
2024/01/21 12:52:09;;;;;;;36.20;32.80;;;;;;;;;;5076876;28;20043;-79
2024/01/21 12:54:34;;;;;;;42.10;38.08;;;;;;;;;;5076025;28;20028;-78
2024/01/21 12:57:02;;;;;;;27.35;24.63;;;;;;;;;;5068909;28;20036;-79
2024/01/21 12:59:27;;;;;;;28.70;25.80;;;;;;;;;;5070464;28;20031;-79
2024/01/21 13:01:53;;;;;;;30.73;27.73;;;;;;;;;;5072897;28;20020;-79
2024/01/21 13:04:19;;;;;;;27.45;25.05;;;;;;;;;;5077955;28;20020;-77
2024/01/21 13:06:45;;;;;;;36.15;32.97;;;;;;;;;;5067963;28;20473;-77
2024/01/21 13:09:10;;;;;;;31.13;28.45;;;;;;;;;;5069024;28;20020;-77
2024/01/21 13:11:36;;;;;;;25.17;22.92;;;;;;;;;;5065938;28;20036;-79
2024/01/21 13:14:01;;;;;;;22.75;20.48;;;;;;;;;;5060076;28;20028;-79
2024/01/21 13:16:27;;;;;;;30.70;27.92;;;;;;;;;;5065540;28;20067;-78
2024/01/21 13:18:52;;;;;;;32.90;29.77;;;;;;;;;;5061657;28;20039;-80
2024/01/21 13:21:17;;;;;;;31.63;28.80;;;;;;;;;;5059005;28;20082;-78
2024/01/21 13:23:43;;;;;;;35.25;32.25;;;;;;;;;;5067519;28;20023;-79
2024/01/21 13:26:11;;;;;;;41.30;37.78;;;;;;;;;;5073428;28;20066;-75
2024/01/21 13:30:42;;;;;;;43.65;39.60;;;;;;;;;;5067834;28;20493;-76
2024/01/21 13:31:21;;;;;;;38.30;34.85;;;;;;;;;;5049524;28;20027;-77
2024/01/21 13:33:47;;;;;;;123.38;111.38;;;;;;;;;;5053389;28;20048;-77
2024/01/21 13:36:12;;;;;;;92.40;83.20;;;;;;;;;;5057080;28;20028;-76
2024/01/21 13:38:38;;;;;;;32.15;29.25;;;;;;;;;;5047508;28;20613;-76
2024/01/21 13:41:04;;;;;;;22.48;20.45;;;;;;;;;;5045292;28;20021;-76
2024/01/21 13:43:30;;;;;;;20.60;18.65;;;;;;;;;;5047762;28;20466;-78
2024/01/21 13:45:56;;;;;;;25.20;23.00;;;;;;;;;;5034691;28;20032;-81
2024/01/21 13:48:21;;;;;;;28.65;26.20;;;;;;;;;;5051293;28;20025;-76
2024/01/21 13:50:47;;;;;;;23.80;21.58;;;;;;;;;;5058782;28;20040;-76
2024/01/21 13:53:14;;;;;;;35.95;32.15;;;;;;;;;;5064866;28;20028;-77
2024/01/21 13:55:39;;;;;;;21.70;19.60;;;;;;;;;;5065985;28;20032;-77
2024/01/21 13:58:05;;;;;;;31.58;28.52;;;;;;;;;;5065703;28;20047;-77
2024/01/21 14:00:30;;;;;;;19.48;17.42;;;;;;;;;;5068037;28;20032;-76
2024/01/21 14:02:56;;;;;;;19.30;17.35;;;;;;;;;;5040864;28;20454;-75
2024/01/21 14:05:22;;;;;;;26.90;24.10;;;;;;;;;;5068261;28;20056;-80